Погода Старая Нявкана неделю

Пензенская область, Россия

27 мая-02 июня
  • 27мая
    Сегодня
    +7°
    +20°
    Ясно и безоблачно
    ВремяПогодаТемператураВлажностьДавлениеВетер, м/сВероятность осадков
    00:00Практически безоблачно+13°C66 %755 мм3.7 м/с2 %
    03:00Ясно и безоблачно+10°C60 %756 мм3.5 м/с2 %
    06:00Ясно и безоблачно+11°C57 %757 мм2.7 м/с2 %
    09:00Ясно и безоблачно+16°C42 %758 мм4.0 м/с2 %
    12:00Ясно и безоблачно+18°C33 %758 мм3.7 м/с2 %
    15:00Ясно и безоблачно+20°C33 %758 мм2.9 м/с2 %
    18:00Ясно и безоблачно+19°C36 %757 мм2.4 м/с2 %
    21:00Ясно и безоблачно+13°C49 %757 мм2.4 м/с2 %
  • 28мая
    Вторник
    +9°
    +23°
    Ясно и безоблачно
    ВремяПогодаТемператураВлажностьДавлениеВетер, м/сВероятность осадков
    00:00Ясно и безоблачно+10°C65 %757 мм2.1 м/с2 %
    03:00Ясно и безоблачно+8°C80 %758 мм2.4 м/с2 %
    06:00Ясно и безоблачно+11°C68 %758 мм2.1 м/с2 %
    09:00Ясно и безоблачно+17°C38 %758 мм2.2 м/с2 %
    12:00Ясно и безоблачно+21°C33 %757 мм1.1 м/с2 %
    15:00Ясно и безоблачно+22°C31 %756 мм0.9 м/с2 %
    18:00Ясно и безоблачно+22°C34 %754 мм1.3 м/с2 %
    21:00Ясно и безоблачно+16°C54 %754 мм2.2 м/с2 %
  • 29мая
    Среда
    +10°
    +25°
    Ясно и безоблачно
    ВремяПогодаТемператураВлажностьДавлениеВетер, м/сВероятность осадков
    00:00Ясно и безоблачно+12°C62 %753 мм2.3 м/с2 %
    03:00Ясно и безоблачно+10°C70 %753 мм2.1 м/с2 %
    06:00Ясно и безоблачно+14°C60 %752 мм2.0 м/с2 %
    09:00Ясно и безоблачно+21°C36 %753 мм1.8 м/с2 %
    12:00Ясно и безоблачно+23°C31 %752 мм1.5 м/с2 %
    15:00Ясно и безоблачно+25°C30 %751 мм1.4 м/с2 %
    18:00Ясно и безоблачно+24°C33 %750 мм1.2 м/с2 %
    21:00Ясно и безоблачно+18°C54 %750 мм1.9 м/с2 %
  • 30мая
    Четверг
    +14°
    +27°
    Ясно и безоблачно
    ВремяПогодаТемператураВлажностьДавлениеВетер, м/сВероятность осадков
    00:00Ясно и безоблачно+14°C58 %749 мм2.3 м/с2 %
    03:00Ясно и безоблачно+12°C65 %749 мм1.7 м/с2 %
    06:00Ясно и безоблачно+15°C63 %749 мм0.9 м/с2 %
    09:00Ясно и безоблачно+22°C35 %750 мм0.4 м/с2 %
    12:00Ясно и безоблачно+25°C29 %749 мм1.3 м/с2 %
    15:00Ясно и безоблачно+26°C27 %749 мм1.5 м/с2 %
    18:00Ясно и безоблачно+26°C29 %748 мм1.3 м/с2 %
    21:00Ясно и безоблачно+21°C36 %748 мм2.1 м/с2 %
  • 31мая
    Пятница
    +13°
    +29°
    Ясно и безоблачно
    ВремяПогодаТемператураВлажностьДавлениеВетер, м/сВероятность осадков
    00:00Ясно и безоблачно+16°C53 %748 мм2.9 м/с2 %
    03:00Ясно и безоблачно+14°C56 %748 мм2.3 м/с2 %
    06:00Ясно и безоблачно+16°C58 %749 мм1.8 м/с2 %
    09:00Ясно и безоблачно+24°C35 %749 мм1.7 м/с5 %
    12:00Практически безоблачно+27°C24 %749 мм1.5 м/с6 %
    15:00Ясно и безоблачно+29°C22 %749 мм1.0 м/с14 %
    18:00Ясно и безоблачно+28°C27 %748 мм1.2 м/с10 %
    21:00Ясно и безоблачно+20°C43 %749 мм2.7 м/с2 %
Мы используем cookies
Соглашаюсь